Gallatin Field Bozeman US
ICAO: KBZN
IATA: BZN
Category: Medium
Scheduled Services: Yes

Elevation: 4473 ft
TransAlt. 18000 ft.

Airport Communications:
ATIS:135.425
SALT LAKE CITY CNTR:132.4
CTAF:118.2
GND:121.8
GREAT FALLS RDO:122.5
BOZEMAN TWR:118.2
UNICOM:122.95

KBZN Zoom In..

Runways:

(A) RW 03 length 2650 ft width 75 ft
---- / hdg 33

(B) RW 11 length 3197 ft width 80 ft
---- / hdg 122

(C) RW 12 length 8994 ft width 150 ft
ILS 109.30 / hdg 123

(D) RW 21 length 2650 ft width 75 ft
---- / hdg 213

(E) RW 29 length 3197 ft width 80 ft
---- / hdg 302

(F) RW 30 length 8994 ft width 150 ft
---- / hdg 303

Location; KBZN
Day. 22 / Time. 23.56 Zulu
* Altimeter: 30.12
* Temperature: -02° c. -28.4°f.
* Wind from: 190° Speed 03 kn.
Dewpoint: -06° c.
Visibility: 10 Statute Miles.
Clouds: Few 8000 ft.
Clouds: Broken 11000 ft.

KBZN 222356Z 19003KT 10SM FEW080 BKN110 M02/M06 A3012 RMK AO2 SLP256 T10221056 11017 21067 53006


Wind From 190°
Speed 03 kn.

YouTube Music Video
 
jpsmedia.com for Web Design  worldairports.se 2018   terms of use